createdAt,value
2022-09-02T00:01:39.146Z,1.60
2022-09-02T00:04:10.142Z,1.90
2022-09-02T00:06:37.281Z,2.00
2022-09-02T00:09:06.566Z,1.83
2022-09-02T00:11:35.243Z,1.83
2022-09-02T00:14:05.541Z,1.63
2022-09-02T00:16:33.348Z,1.60
2022-09-02T00:19:02.484Z,1.70
2022-09-02T00:21:30.233Z,1.70
2022-09-02T00:23:56.862Z,1.97
2022-09-02T00:26:24.549Z,1.80
2022-09-02T00:28:56.218Z,1.80
2022-09-02T00:31:25.847Z,1.53
2022-09-02T00:33:53.386Z,1.83
2022-09-02T00:36:20.122Z,1.73
2022-09-02T00:38:47.248Z,1.70
2022-09-02T00:41:14.064Z,1.60
2022-09-02T00:43:48.262Z,1.53
2022-09-02T00:46:17.221Z,1.63
2022-09-02T00:48:49.346Z,1.90
2022-09-02T00:51:16.739Z,2.17
2022-09-02T00:53:45.663Z,1.80
2022-09-02T00:56:18.870Z,1.90
2022-09-02T00:58:46.342Z,1.67
2022-09-02T01:01:13.131Z,2.23
2022-09-02T01:03:41.633Z,1.80
2022-09-02T01:06:11.693Z,1.90
2022-09-02T01:08:39.192Z,1.30
2022-09-02T01:11:06.676Z,1.83
2022-09-02T01:13:40.555Z,1.90
2022-09-02T01:16:19.556Z,1.67
2022-09-02T01:18:49.861Z,1.80
2022-09-02T01:21:17.553Z,1.80
2022-09-02T01:23:45.812Z,1.70
2022-09-02T01:26:12.522Z,1.90
2022-09-02T01:28:39.164Z,1.80
2022-09-02T01:31:06.347Z,1.40
2022-09-02T01:33:33.915Z,1.70
2022-09-02T01:36:04.168Z,1.80
2022-09-02T01:38:31.139Z,1.60
2022-09-02T01:40:58.189Z,1.80
2022-09-02T01:43:27.370Z,1.70
2022-09-02T01:45:57.273Z,1.67
2022-09-02T01:48:27.142Z,1.87
2022-09-02T01:50:58.459Z,1.50
2022-09-02T01:53:25.927Z,1.60
2022-09-02T01:55:55.990Z,1.63
2022-09-02T01:58:23.273Z,1.80
2022-09-02T02:00:50.989Z,1.80
2022-09-02T02:03:17.872Z,2.00
2022-09-02T02:05:45.288Z,1.70
2022-09-02T02:08:16.020Z,2.07
2022-09-02T02:10:43.668Z,2.07
2022-09-02T02:13:12.952Z,1.97
2022-09-02T02:15:42.577Z,1.67
2022-09-02T02:18:11.407Z,1.80
2022-09-02T02:20:38.143Z,2.20
2022-09-02T02:23:06.303Z,2.03
2022-09-02T02:25:32.838Z,1.87
2022-09-02T02:27:59.418Z,1.70
2022-09-02T02:30:27.079Z,1.67
2022-09-02T02:32:54.102Z,1.90
2022-09-02T02:35:22.006Z,1.77
2022-09-02T02:37:49.124Z,1.50
2022-09-02T02:40:22.122Z,1.50
2022-09-02T02:42:50.342Z,1.70
2022-09-02T02:45:17.010Z,1.70
2022-09-02T02:47:47.039Z,1.80
2022-09-02T02:50:18.929Z,1.37
2022-09-02T02:52:48.826Z,2.13
2022-09-02T02:55:17.400Z,1.47
2022-09-02T02:57:44.607Z,1.80
2022-09-02T03:00:18.740Z,1.50
2022-09-02T03:02:48.102Z,1.67
2022-09-02T03:05:16.513Z,1.77
2022-09-02T03:07:43.430Z,1.80
2022-09-02T03:10:11.908Z,1.40
2022-09-02T03:12:40.689Z,1.70
2022-09-02T03:15:09.246Z,1.30
2022-09-02T03:17:35.941Z,2.00
2022-09-02T03:20:04.813Z,1.40
2022-09-02T03:22:38.814Z,1.60
2022-09-02T03:25:09.456Z,1.60
2022-09-02T03:27:40.447Z,1.53
2022-09-02T03:30:11.299Z,1.67
2022-09-02T03:32:38.101Z,1.50
2022-09-02T03:35:07.709Z,1.60
2022-09-02T03:37:37.174Z,1.70
2022-09-02T03:40:06.632Z,1.53
2022-09-02T03:42:34.353Z,1.53
2022-09-02T03:45:01.122Z,1.70
2022-09-02T03:47:30.109Z,1.40
2022-09-02T03:49:57.772Z,1.60
2022-09-02T03:52:25.906Z,1.90
2022-09-02T03:54:52.867Z,1.43
2022-09-02T03:57:22.997Z,1.70
2022-09-02T03:59:49.714Z,1.67
2022-09-02T04:02:16.473Z,1.50
2022-09-02T04:04:43.454Z,1.77
2022-09-02T04:07:10.446Z,1.70
2022-09-02T04:09:37.218Z,1.50
2022-09-02T04:12:05.354Z,1.93
2022-09-02T04:14:32.305Z,1.67
2022-09-02T04:16:58.916Z,1.50
2022-09-02T04:19:25.606Z,1.53
2022-09-02T04:21:52.214Z,1.70
2022-09-02T04:24:19.319Z,1.30
2022-09-02T04:26:49.051Z,1.30
2022-09-02T04:29:19.019Z,2.10
2022-09-02T04:31:47.405Z,1.60
2022-09-02T04:34:14.055Z,1.60
2022-09-02T04:36:41.981Z,2.33
2022-09-02T04:39:11.030Z,1.57
2022-09-02T04:41:38.480Z,1.77
2022-09-02T04:44:08.463Z,1.80
2022-09-02T04:46:39.147Z,1.73
2022-09-02T04:49:09.502Z,1.70
2022-09-02T04:51:38.121Z,1.50
2022-09-02T04:54:07.870Z,1.60
2022-09-02T04:56:35.452Z,1.80
2022-09-02T04:59:04.178Z,1.67
2022-09-02T05:01:34.388Z,1.80
2022-09-02T05:04:09.494Z,2.03
2022-09-02T05:06:44.068Z,1.73
2022-09-02T05:09:15.452Z,2.00
2022-09-02T05:11:42.543Z,1.90
2022-09-02T05:14:09.819Z,1.80
2022-09-02T05:16:40.373Z,1.97
2022-09-02T05:19:12.536Z,1.70
2022-09-02T05:21:44.977Z,1.63
2022-09-02T05:24:17.333Z,1.77
2022-09-02T05:26:44.756Z,1.50
2022-09-02T05:29:13.959Z,1.83
2022-09-02T05:31:42.064Z,2.03
2022-09-02T05:34:12.570Z,1.50
2022-09-02T05:36:39.467Z,1.80
2022-09-02T05:39:06.405Z,1.60
2022-09-02T05:41:35.577Z,1.70
2022-09-02T05:44:05.490Z,1.70
2022-09-02T05:46:34.390Z,1.93
2022-09-02T05:49:12.421Z,1.80
2022-09-02T05:51:44.908Z,1.80
2022-09-02T05:54:21.028Z,1.77
2022-09-02T05:56:51.697Z,1.70
2022-09-02T05:59:21.641Z,1.90
2022-09-02T06:01:49.439Z,1.73
2022-09-02T06:04:17.390Z,1.93
2022-09-02T06:06:46.539Z,2.30
2022-09-02T06:09:19.245Z,2.00
2022-09-02T06:11:49.545Z,2.00
2022-09-02T06:14:24.955Z,1.93
2022-09-02T06:16:54.880Z,1.70
2022-09-02T06:19:39.978Z,1.67
2022-09-02T06:22:07.594Z,1.80
2022-09-02T06:24:36.837Z,2.00
2022-09-02T06:27:09.050Z,1.83
2022-09-02T06:29:38.821Z,1.83
2022-09-02T06:32:07.171Z,1.77
2022-09-02T06:34:35.342Z,2.10
2022-09-02T06:37:03.089Z,1.80
2022-09-02T06:39:31.952Z,1.77
2022-09-02T06:41:59.610Z,2.10
2022-09-02T06:44:29.668Z,1.70
2022-09-02T06:46:59.835Z,1.60
2022-09-02T06:49:28.579Z,1.80
2022-09-02T06:51:57.421Z,2.10
2022-09-02T06:54:29.861Z,2.10
2022-09-02T06:57:11.322Z,2.00
2022-09-02T06:59:38.550Z,2.13
2022-09-02T07:02:05.571Z,2.20
2022-09-02T07:04:53.228Z,2.10
2022-09-02T07:07:22.944Z,2.10
2022-09-02T07:09:58.799Z,2.03
2022-09-02T07:12:27.390Z,2.23
2022-09-02T07:15:05.158Z,2.17
2022-09-02T07:17:36.766Z,2.13
2022-09-02T07:20:07.695Z,1.87
2022-09-02T07:22:57.017Z,2.00
2022-09-02T07:25:26.159Z,1.93
2022-09-02T07:27:54.545Z,1.90
2022-09-02T07:30:22.087Z,2.20
2022-09-02T07:32:54.001Z,2.00
2022-09-02T07:35:23.540Z,2.23
2022-09-02T07:37:51.503Z,2.33
2022-09-02T07:40:21.067Z,2.20
2022-09-02T07:42:48.127Z,2.00
2022-09-02T07:45:15.097Z,2.07
2022-09-02T07:47:44.336Z,1.93
2022-09-02T07:50:19.838Z,1.80
2022-09-02T07:52:52.339Z,2.23
2022-09-02T07:55:19.504Z,2.33
2022-09-02T07:57:46.693Z,2.40
2022-09-02T08:00:16.497Z,2.20
2022-09-02T08:02:47.458Z,1.70
2022-09-02T08:05:19.809Z,1.67
2022-09-02T08:07:46.489Z,2.20
2022-09-02T08:10:14.626Z,1.97
2022-09-02T08:12:41.871Z,2.13
2022-09-02T08:15:10.546Z,2.03
2022-09-02T08:17:40.541Z,2.10
2022-09-02T08:20:12.815Z,1.80
2022-09-02T08:22:40.169Z,1.53
2022-09-02T08:25:08.041Z,1.80
2022-09-02T08:27:35.590Z,1.70
2022-09-02T08:30:02.833Z,1.50
2022-09-02T08:32:32.828Z,1.83
2022-09-02T08:35:02.704Z,1.60
2022-09-02T08:37:31.412Z,1.63
2022-09-02T08:39:58.230Z,1.50
2022-09-02T08:42:32.504Z,1.70
2022-09-02T08:45:08.460Z,1.47
2022-09-02T08:47:37.845Z,1.80
2022-09-02T08:50:13.067Z,1.87
2022-09-02T08:52:42.825Z,1.90
2022-09-02T08:55:18.122Z,1.70
2022-09-02T08:57:45.935Z,2.63
2022-09-02T09:00:13.366Z,1.97
2022-09-02T09:02:58.082Z,1.83
2022-09-02T09:05:36.121Z,1.77
2022-09-02T09:08:21.614Z,1.70
2022-09-02T09:11:04.855Z,1.57
2022-09-02T09:13:53.105Z,1.50
2022-09-02T09:16:44.786Z,1.60
2022-09-02T09:19:13.665Z,2.23
2022-09-02T09:21:41.595Z,1.20
2022-09-02T09:24:32.300Z,1.90
2022-09-02T09:26:59.815Z,1.73
2022-09-02T09:29:26.966Z,1.43
2022-09-02T09:32:00.132Z,1.90
2022-09-02T09:34:52.575Z,1.70
2022-09-02T09:37:47.886Z,1.83
2022-09-02T09:40:23.310Z,2.10
2022-09-02T09:43:14.897Z,1.80
2022-09-02T09:45:51.527Z,1.73
2022-09-02T09:48:29.742Z,1.50
2022-09-02T09:50:56.405Z,1.70
2022-09-02T09:53:24.624Z,1.43
2022-09-02T09:55:55.690Z,1.60
2022-09-02T09:58:40.467Z,1.60
2022-09-02T10:01:21.706Z,1.67
2022-09-02T10:03:54.954Z,1.50
2022-09-02T10:06:37.179Z,1.50
2022-09-02T10:09:30.706Z,1.70
2022-09-02T10:12:05.298Z,1.43
2022-09-02T10:14:35.859Z,1.73
2022-09-02T10:17:21.117Z,1.80
2022-09-02T10:20:05.153Z,1.90
2022-09-02T10:23:05.657Z,1.93
2022-09-02T10:25:53.640Z,1.73
2022-09-02T10:28:42.044Z,2.00
2022-09-02T10:31:33.464Z,1.77
2022-09-02T10:34:31.714Z,1.83
2022-09-02T10:37:21.350Z,1.60
2022-09-02T10:40:01.318Z,1.90
2022-09-02T10:42:58.212Z,1.90
2022-09-02T10:45:34.529Z,1.63
2022-09-02T10:48:13.230Z,1.90
2022-09-02T10:50:55.953Z,1.47
2022-09-02T10:53:32.452Z,1.70
2022-09-02T10:56:03.874Z,1.60
2022-09-02T10:59:03.191Z,1.80
2022-09-02T11:01:34.713Z,1.83
2022-09-02T11:04:26.097Z,1.23
2022-09-02T11:07:02.960Z,1.80
2022-09-02T11:09:37.248Z,2.00
2022-09-02T11:12:22.702Z,1.73
2022-09-02T11:14:59.170Z,1.83
2022-09-02T11:17:35.523Z,1.80
2022-09-02T11:20:05.213Z,1.90
2022-09-02T11:22:48.881Z,1.90
2022-09-02T11:25:30.300Z,1.80
2022-09-02T11:28:22.511Z,2.10
2022-09-02T11:31:01.245Z,1.80
2022-09-02T11:33:43.297Z,1.80
2022-09-02T11:36:11.045Z,1.97
2022-09-02T11:38:52.808Z,1.50
2022-09-02T11:41:52.004Z,1.67
2022-09-02T11:44:31.430Z,1.60
2022-09-02T11:47:15.990Z,1.50
2022-09-02T11:49:46.250Z,1.73
2022-09-02T11:52:50.630Z,2.30
2022-09-02T11:55:24.539Z,1.70
2022-09-02T11:58:01.295Z,1.60
2022-09-02T12:00:35.870Z,1.50
2022-09-02T12:03:11.884Z,1.73
2022-09-02T12:05:47.778Z,2.70
2022-09-02T12:08:32.891Z,2.27
2022-09-02T12:11:06.833Z,1.97
2022-09-02T12:13:41.511Z,1.90
2022-09-02T12:16:28.682Z,1.80
2022-09-02T12:19:02.778Z,1.63
2022-09-02T12:21:31.389Z,2.03
2022-09-02T12:23:58.363Z,2.20
2022-09-02T12:26:49.430Z,1.80
2022-09-02T12:29:19.637Z,1.67
2022-09-02T12:31:49.727Z,1.67
2022-09-02T12:34:25.843Z,2.37
2022-09-02T12:36:53.585Z,1.60
2022-09-02T12:39:23.250Z,1.90
2022-09-02T12:42:11.395Z,2.20
2022-09-02T12:44:58.825Z,1.97
2022-09-02T12:47:26.504Z,2.37
2022-09-02T12:50:02.653Z,1.60
2022-09-02T12:52:51.726Z,2.00
2022-09-02T12:55:20.582Z,1.63
2022-09-02T12:57:53.632Z,1.77
2022-09-02T13:00:37.557Z,1.90
2022-09-02T13:03:34.241Z,1.63
2022-09-02T13:06:25.297Z,1.90
2022-09-02T13:09:29.886Z,1.80
2022-09-02T13:12:34.317Z,1.73
2022-09-02T13:15:23.490Z,2.10
2022-09-02T13:18:18.271Z,1.53
2022-09-02T13:20:55.626Z,1.73
2022-09-02T13:24:05.799Z,1.60
2022-09-02T13:28:58.745Z,1.27
2022-09-02T13:31:27.733Z,1.43
2022-09-02T13:34:01.966Z,1.80
2022-09-02T13:36:37.022Z,1.60
2022-09-02T13:39:20.076Z,1.20
2022-09-02T13:42:34.517Z,1.57
2022-09-02T13:45:36.471Z,1.57
2022-09-02T13:48:09.921Z,1.30
2022-09-02T13:50:42.166Z,1.33
2022-09-02T13:56:02.174Z,1.37
2022-09-02T13:58:29.039Z,1.10
2022-09-02T14:01:18.187Z,1.07
2022-09-02T14:03:51.618Z,1.27
2022-09-02T14:06:26.461Z,1.23
2022-09-02T14:08:58.583Z,0.97
2022-09-02T14:11:27.578Z,1.33
2022-09-02T14:13:56.179Z,1.10
2022-09-02T14:16:37.032Z,1.30
2022-09-02T14:19:07.592Z,1.20
2022-09-02T14:21:35.749Z,1.50
2022-09-02T14:24:02.725Z,1.20
2022-09-02T14:26:38.352Z,1.03
2022-09-02T14:29:06.984Z,1.20
2022-09-02T14:31:34.845Z,1.07
2022-09-02T14:34:01.835Z,0.97
2022-09-02T14:36:33.717Z,0.90
2022-09-02T14:39:30.068Z,1.33
2022-09-02T14:41:57.225Z,0.97
2022-09-02T14:44:36.235Z,1.20
2022-09-02T14:47:12.850Z,1.13
2022-09-02T14:49:47.667Z,1.17
2022-09-02T14:52:29.947Z,1.00
2022-09-02T14:54:57.992Z,1.00
2022-09-02T14:57:34.511Z,0.90
2022-09-02T15:00:08.353Z,1.20
2022-09-02T15:02:36.325Z,1.10
2022-09-02T15:05:06.351Z,1.13
2022-09-02T15:07:33.773Z,1.13
2022-09-02T15:10:00.447Z,1.13
2022-09-02T15:12:37.149Z,0.90
2022-09-02T15:15:04.034Z,1.13
2022-09-02T15:17:30.971Z,0.80
2022-09-02T15:20:16.573Z,1.00
2022-09-02T15:23:03.611Z,1.07
2022-09-02T15:25:50.450Z,1.00
2022-09-02T15:28:38.432Z,1.03
2022-09-02T15:31:26.011Z,1.00
2022-09-02T15:34:12.891Z,0.93
2022-09-02T15:37:00.271Z,0.80
2022-09-02T15:39:47.267Z,1.20
2022-09-02T15:42:38.677Z,0.90
2022-09-02T15:45:26.617Z,0.97
2022-09-02T15:48:13.763Z,1.07
2022-09-02T15:51:10.249Z,1.13
2022-09-02T15:54:05.186Z,1.10
2022-09-02T15:56:59.121Z,0.90
2022-09-02T15:59:45.928Z,1.07
2022-09-02T16:02:32.882Z,0.93
2022-09-02T16:05:21.265Z,1.00
2022-09-02T16:08:08.238Z,0.90
2022-09-02T16:10:55.206Z,1.00
2022-09-02T16:13:42.714Z,1.20
2022-09-02T16:16:31.145Z,0.70
2022-09-02T16:19:22.476Z,1.23
2022-09-02T16:22:09.391Z,1.40
2022-09-02T16:24:56.312Z,1.30
2022-09-02T16:27:52.250Z,0.80
2022-09-02T16:30:43.305Z,1.30
2022-09-02T16:33:33.010Z,1.00
2022-09-02T16:36:21.001Z,1.10
2022-09-02T16:39:10.522Z,0.80
2022-09-02T16:41:58.132Z,0.80
2022-09-02T16:44:45.994Z,1.10
2022-09-02T16:47:38.883Z,1.00
2022-09-02T16:50:25.784Z,1.03
2022-09-02T16:53:13.235Z,1.00
2022-09-02T16:56:00.505Z,0.90
2022-09-02T16:58:47.974Z,0.90
2022-09-02T17:01:35.822Z,1.10
2022-09-02T17:04:23.386Z,1.00
2022-09-02T17:07:10.332Z,1.30
2022-09-02T17:09:57.267Z,0.90
2022-09-02T17:12:44.166Z,0.77
2022-09-02T17:15:31.036Z,0.97
2022-09-02T17:18:17.867Z,1.10
2022-09-02T17:21:16.684Z,0.90
2022-09-02T17:24:05.844Z,0.90
2022-09-02T17:26:55.668Z,0.93
2022-09-02T17:29:49.013Z,0.70
2022-09-02T17:32:40.762Z,0.80
2022-09-02T17:35:27.676Z,0.93
2022-09-02T17:38:14.873Z,0.73
2022-09-02T17:41:30.842Z,0.93
2022-09-02T17:44:17.938Z,0.97
2022-09-02T17:47:20.974Z,1.00
2022-09-02T17:50:08.142Z,0.93
2022-09-02T17:52:54.975Z,1.00
2022-09-02T17:55:42.397Z,0.70
2022-09-02T17:58:39.034Z,1.00
2022-09-02T18:01:30.087Z,0.90
2022-09-02T18:04:47.138Z,1.03
2022-09-02T18:07:49.899Z,0.80
2022-09-02T18:11:02.920Z,0.90
2022-09-02T18:14:08.945Z,0.90
2022-09-02T18:17:03.425Z,1.00
2022-09-02T18:20:09.603Z,1.00
2022-09-02T18:22:56.504Z,1.20
2022-09-02T18:26:14.323Z,1.17
2022-09-02T18:29:16.513Z,0.80
2022-09-02T18:32:24.298Z,0.97
2022-09-02T18:35:29.812Z,0.90
2022-09-02T18:38:44.221Z,0.80
2022-09-02T18:41:46.615Z,1.00
2022-09-02T18:44:45.449Z,0.70
2022-09-02T18:47:43.248Z,0.90
2022-09-02T18:50:49.895Z,0.77
2022-09-02T18:53:51.322Z,0.87
2022-09-02T18:56:48.484Z,0.87
2022-09-02T19:00:11.033Z,1.10
2022-09-02T19:03:01.396Z,1.00
2022-09-02T19:05:48.391Z,1.20
2022-09-02T19:08:38.111Z,0.90
2022-09-02T19:11:27.292Z,1.00
2022-09-02T19:14:23.530Z,0.90
2022-09-02T19:17:12.577Z,0.90
2022-09-02T19:20:02.810Z,0.80
2022-09-02T19:22:53.671Z,0.80
2022-09-02T19:25:44.215Z,0.90
2022-09-02T19:28:31.115Z,0.90
2022-09-02T19:31:21.849Z,1.10
2022-09-02T19:34:10.542Z,1.00
2022-09-02T19:36:57.466Z,0.90
2022-09-02T19:39:44.505Z,1.23
2022-09-02T19:42:31.912Z,1.10
2022-09-02T19:45:19.408Z,1.10
2022-09-02T19:48:10.930Z,0.90
2022-09-02T19:50:57.906Z,0.90
2022-09-02T19:53:45.453Z,1.00
2022-09-02T19:56:32.690Z,0.93
2022-09-02T19:59:19.667Z,1.00
2022-09-02T20:02:06.693Z,0.90
2022-09-02T20:04:53.612Z,1.00
2022-09-02T20:07:41.310Z,0.97
2022-09-02T20:10:30.102Z,0.97
2022-09-02T20:13:17.908Z,1.27
2022-09-02T20:16:05.835Z,0.93
2022-09-02T20:18:53.978Z,1.00
2022-09-02T20:21:45.910Z,1.00
2022-09-02T20:24:34.495Z,1.10
2022-09-02T20:27:39.945Z,0.93
2022-09-02T20:30:33.741Z,1.10
2022-09-02T20:33:21.999Z,0.70
2022-09-02T20:36:24.586Z,1.07
2022-09-02T20:39:23.822Z,0.90
2022-09-02T20:42:46.018Z,1.03
2022-09-02T20:45:39.066Z,1.10
2022-09-02T20:48:59.548Z,1.10
2022-09-02T20:52:08.834Z,1.33
2022-09-02T20:55:31.747Z,1.20
2022-09-02T20:58:36.469Z,0.90
2022-09-02T21:01:27.094Z,1.27
2022-09-02T21:04:14.138Z,1.40
2022-09-02T21:07:26.152Z,1.03
2022-09-02T21:10:24.386Z,1.20
2022-09-02T21:13:17.419Z,1.00
2022-09-02T21:16:11.188Z,1.20
2022-09-02T21:19:04.075Z,1.20
2022-09-02T21:22:05.113Z,1.07
2022-09-02T21:25:09.942Z,1.37
2022-09-02T21:28:11.605Z,1.37
2022-09-02T21:31:05.303Z,1.13
2022-09-02T21:33:54.734Z,1.57
2022-09-02T21:36:42.218Z,1.37
2022-09-02T21:39:32.461Z,1.20
2022-09-02T21:42:49.266Z,1.17
2022-09-02T21:45:56.689Z,1.57
2022-09-02T21:49:16.058Z,1.20
2022-09-02T21:52:12.527Z,1.43
2022-09-02T21:55:31.086Z,1.03
2022-09-02T21:58:49.296Z,1.20
2022-09-02T22:01:48.062Z,1.00
2022-09-02T22:05:05.334Z,1.47
2022-09-02T22:07:59.804Z,1.10
2022-09-02T22:10:51.991Z,1.30
2022-09-02T22:13:41.855Z,1.10
2022-09-02T22:16:48.543Z,1.30
2022-09-02T22:19:39.094Z,1.50
2022-09-02T22:22:41.170Z,1.53
2022-09-02T22:25:29.825Z,1.43
2022-09-02T22:28:26.556Z,1.60
2022-09-02T22:31:18.444Z,1.40
2022-09-02T22:34:07.771Z,1.60
2022-09-02T22:36:59.799Z,1.60
2022-09-02T22:39:53.060Z,1.60
2022-09-02T22:42:41.371Z,1.37
2022-09-02T22:45:57.549Z,1.33
2022-09-02T22:49:27.206Z,1.20
2022-09-02T22:52:45.855Z,1.40
2022-09-02T22:55:38.713Z,1.50
2022-09-02T22:58:51.280Z,1.27
2022-09-02T23:01:53.886Z,1.60
2022-09-02T23:05:03.216Z,1.60
2022-09-02T23:07:50.116Z,1.60
2022-09-02T23:10:46.897Z,1.77
2022-09-02T23:13:58.097Z,1.60
2022-09-02T23:17:07.779Z,1.80
2022-09-02T23:19:56.324Z,1.70
2022-09-02T23:23:06.870Z,1.30
2022-09-02T23:26:30.837Z,1.70
2022-09-02T23:29:24.073Z,1.60
2022-09-02T23:32:23.534Z,1.80
2022-09-02T23:35:17.421Z,1.50
2022-09-02T23:38:45.382Z,1.63
2022-09-02T23:41:32.299Z,1.30
2022-09-02T23:44:20.586Z,1.63
2022-09-02T23:47:13.686Z,1.50
2022-09-02T23:50:20.903Z,1.83
2022-09-02T23:53:17.869Z,1.77
2022-09-02T23:56:07.560Z,1.40
2022-09-02T23:59:13.374Z,1.80
